createdAt,value
2022-09-28T00:00:47.575Z,16.86
2022-09-28T00:03:14.165Z,16.69
2022-09-28T00:05:40.830Z,16.21
2022-09-28T00:08:07.394Z,15.69
2022-09-28T00:10:33.996Z,15.65
2022-09-28T00:13:01.740Z,15.89
2022-09-28T00:15:28.398Z,16.40
2022-09-28T00:17:54.990Z,16.00
2022-09-28T00:20:22.805Z,16.11
2022-09-28T00:22:49.500Z,16.35
2022-09-28T00:25:16.994Z,16.56
2022-09-28T00:27:43.679Z,16.69
2022-09-28T00:30:10.535Z,16.62
2022-09-28T00:32:37.245Z,16.68
2022-09-28T00:35:03.955Z,16.41
2022-09-28T00:37:30.558Z,16.58
2022-09-28T00:39:57.131Z,16.73
2022-09-28T00:42:25.685Z,16.34
2022-09-28T00:44:56.695Z,15.52
2022-09-28T00:47:35.468Z,16.07
2022-09-28T00:50:14.811Z,16.23
2022-09-28T00:52:53.287Z,15.89
2022-09-28T00:55:27.079Z,15.82
2022-09-28T00:57:58.502Z,16.09
2022-09-28T01:00:25.513Z,16.23
2022-09-28T01:02:52.818Z,16.31
2022-09-28T01:05:20.738Z,16.41
2022-09-28T01:07:48.602Z,16.58
2022-09-28T01:10:15.508Z,16.68
2022-09-28T01:12:42.107Z,16.31
2022-09-28T01:15:09.622Z,15.85
2022-09-28T01:17:52.571Z,15.99
2022-09-28T01:20:28.191Z,16.36
2022-09-28T01:23:26.796Z,16.27
2022-09-28T01:26:15.504Z,16.01
2022-09-28T01:28:46.085Z,16.06
2022-09-28T01:31:15.120Z,16.01
2022-09-28T01:33:55.425Z,16.04
2022-09-28T01:36:31.295Z,15.90
2022-09-28T01:39:05.616Z,16.04
2022-09-28T01:41:36.726Z,16.06
2022-09-28T01:44:08.716Z,15.85
2022-09-28T01:46:45.180Z,15.70
2022-09-28T01:49:18.181Z,16.15
2022-09-28T01:51:59.034Z,16.13
2022-09-28T01:54:31.199Z,16.26
2022-09-28T01:57:23.026Z,16.18
2022-09-28T02:00:02.994Z,15.18
2022-09-28T02:02:37.312Z,15.41
2022-09-28T02:05:16.922Z,15.88
2022-09-28T02:08:28.453Z,16.06
2022-09-28T02:11:00.792Z,16.13
2022-09-28T02:13:35.544Z,16.06
2022-09-28T02:16:10.828Z,16.05
2022-09-28T02:18:37.628Z,16.28
2022-09-28T02:21:13.150Z,16.40
2022-09-28T02:23:42.952Z,16.46
2022-09-28T02:26:14.033Z,16.24
2022-09-28T02:28:40.791Z,16.20
2022-09-28T02:31:07.422Z,15.64
2022-09-28T02:33:38.725Z,15.35
2022-09-28T02:36:05.890Z,15.42
2022-09-28T02:38:32.602Z,15.77
2022-09-28T02:41:20.395Z,15.83
2022-09-28T02:44:05.551Z,15.64
2022-09-28T02:46:44.498Z,15.37
2022-09-28T02:49:32.628Z,15.39
2022-09-28T02:52:13.734Z,14.59
2022-09-28T02:55:11.266Z,14.24
2022-09-28T02:57:43.956Z,14.65
2022-09-28T03:00:17.540Z,14.82
2022-09-28T03:03:10.819Z,14.88
2022-09-28T03:05:42.315Z,15.20
2022-09-28T03:08:38.263Z,15.37
2022-09-28T03:11:12.722Z,15.53
2022-09-28T03:13:39.645Z,15.12
2022-09-28T03:16:20.056Z,15.26
2022-09-28T03:18:46.903Z,15.54
2022-09-28T03:21:14.739Z,15.07
2022-09-28T03:23:42.242Z,15.00
2022-09-28T03:26:12.702Z,15.41
2022-09-28T03:28:39.674Z,15.66
2022-09-28T03:31:06.608Z,15.14
2022-09-28T03:33:33.232Z,15.31
2022-09-28T03:35:59.882Z,15.79
2022-09-28T03:38:26.479Z,15.70
2022-09-28T03:40:55.044Z,15.85
2022-09-28T03:43:22.352Z,14.97
2022-09-28T03:45:54.051Z,15.41
2022-09-28T03:48:30.012Z,15.77
2022-09-28T03:51:01.302Z,16.09
2022-09-28T03:53:29.690Z,16.28
2022-09-28T03:56:01.921Z,16.30
2022-09-28T03:58:28.704Z,16.35
2022-09-28T04:00:55.428Z,15.81
2022-09-28T04:03:22.063Z,15.96
2022-09-28T04:05:52.961Z,15.89
2022-09-28T04:08:20.010Z,16.14
2022-09-28T04:10:47.204Z,16.02
2022-09-28T04:13:14.010Z,16.00
2022-09-28T04:15:40.636Z,15.55
2022-09-28T04:18:11.957Z,15.63
2022-09-28T04:20:41.090Z,16.01
2022-09-28T04:23:07.776Z,15.87
2022-09-28T04:25:34.404Z,16.03
2022-09-28T04:28:19.883Z,15.77
2022-09-28T04:30:47.904Z,15.50
2022-09-28T04:33:14.538Z,15.60
2022-09-28T04:35:41.206Z,15.70
2022-09-28T04:38:07.797Z,16.08
2022-09-28T04:40:34.487Z,16.29
2022-09-28T04:43:01.237Z,16.39
2022-09-28T04:45:28.613Z,15.84
2022-09-28T04:47:55.313Z,15.93
2022-09-28T04:50:22.133Z,16.35
2022-09-28T04:52:48.709Z,16.26
2022-09-28T04:55:15.498Z,16.20
2022-09-28T04:57:42.140Z,16.09
2022-09-28T05:00:10.354Z,16.24
2022-09-28T05:02:37.790Z,16.50
2022-09-28T05:05:04.791Z,16.66
2022-09-28T05:07:31.398Z,16.86
2022-09-28T05:09:58.014Z,16.77
2022-09-28T05:12:24.635Z,16.71
2022-09-28T05:14:51.185Z,16.82
2022-09-28T05:17:17.758Z,17.00
2022-09-28T05:19:44.346Z,16.89
2022-09-28T05:22:14.844Z,16.51
2022-09-28T05:24:41.795Z,16.74
2022-09-28T05:27:08.712Z,16.71
2022-09-28T05:29:35.306Z,16.65
2022-09-28T05:32:02.168Z,16.63
2022-09-28T05:34:29.271Z,16.63
2022-09-28T05:36:55.880Z,16.43
2022-09-28T05:39:22.617Z,16.60
2022-09-28T05:41:49.195Z,16.44
2022-09-28T05:44:15.818Z,16.63
2022-09-28T05:46:42.391Z,16.58
2022-09-28T05:49:09.041Z,16.68
2022-09-28T05:51:35.630Z,16.95
2022-09-28T05:54:05.910Z,17.10
2022-09-28T05:56:33.130Z,17.19
2022-09-28T05:58:59.931Z,17.16
2022-09-28T06:01:26.708Z,17.31
2022-09-28T06:03:53.335Z,17.23
2022-09-28T06:06:19.952Z,16.44
2022-09-28T06:08:48.443Z,16.52
2022-09-28T06:11:15.475Z,16.57
2022-09-28T06:13:42.103Z,16.96
2022-09-28T06:16:10.545Z,17.34
2022-09-28T06:18:37.227Z,16.99
2022-09-28T06:21:03.987Z,17.34
2022-09-28T06:23:30.635Z,17.31
2022-09-28T06:25:59.254Z,17.41
2022-09-28T06:28:26.952Z,17.23
2022-09-28T06:30:54.105Z,16.76
2022-09-28T06:33:20.816Z,16.77
2022-09-28T06:35:48.017Z,16.56
2022-09-28T06:38:14.764Z,17.21
2022-09-28T06:40:41.403Z,17.22
2022-09-28T06:43:12.094Z,17.10
2022-09-28T06:45:39.179Z,17.10
2022-09-28T06:48:06.627Z,16.93
2022-09-28T06:50:37.449Z,17.09
2022-09-28T06:53:09.569Z,16.96
2022-09-28T06:55:39.814Z,17.10
2022-09-28T06:58:10.725Z,17.09
2022-09-28T07:00:39.032Z,17.17
2022-09-28T07:03:10.565Z,17.44
2022-09-28T07:05:41.561Z,17.42
2022-09-28T07:08:08.280Z,17.29
2022-09-28T07:10:35.127Z,17.01
2022-09-28T07:13:04.750Z,16.77
2022-09-28T07:15:32.692Z,17.10
2022-09-28T07:18:04.321Z,17.25
2022-09-28T07:20:40.783Z,16.45
2022-09-28T07:23:18.821Z,16.87
2022-09-28T07:25:48.047Z,17.36
2022-09-28T07:28:15.289Z,17.46
2022-09-28T07:30:44.281Z,17.44
2022-09-28T07:33:12.939Z,17.80
2022-09-28T07:35:41.772Z,17.79
2022-09-28T07:38:10.083Z,17.87
2022-09-28T07:40:55.265Z,17.67
2022-09-28T07:43:22.610Z,17.67
2022-09-28T07:45:54.107Z,18.12
2022-09-28T07:48:21.896Z,18.11
2022-09-28T07:50:53.482Z,17.23
2022-09-28T07:53:22.958Z,17.90
2022-09-28T07:56:05.103Z,18.55
2022-09-28T07:58:34.959Z,18.87
2022-09-28T08:01:10.674Z,17.96
2022-09-28T08:03:38.870Z,17.50
2022-09-28T08:06:09.821Z,17.02
2022-09-28T08:08:37.080Z,17.83
2022-09-28T08:11:06.451Z,17.90
2022-09-28T08:13:33.047Z,18.35
2022-09-28T08:16:03.386Z,18.78
2022-09-28T08:18:31.423Z,19.09
2022-09-28T08:21:16.838Z,18.99
2022-09-28T08:23:43.523Z,18.93
2022-09-28T08:26:14.560Z,17.98
2022-09-28T08:28:43.348Z,18.11
2022-09-28T08:31:10.002Z,18.66
2022-09-28T08:33:36.950Z,17.31
2022-09-28T08:36:04.671Z,17.97
2022-09-28T08:38:31.748Z,18.20
2022-09-28T08:41:06.192Z,18.57
2022-09-28T08:44:10.212Z,17.50
2022-09-28T08:46:42.312Z,18.39
2022-09-28T08:49:42.070Z,18.90
2022-09-28T08:52:23.569Z,18.81
2022-09-28T08:55:05.700Z,18.40
2022-09-28T08:58:04.352Z,17.91
2022-09-28T09:00:48.699Z,18.81
2022-09-28T09:03:20.053Z,19.31
2022-09-28T09:05:58.649Z,19.37
2022-09-28T09:08:46.946Z,19.67
2022-09-28T09:11:32.127Z,19.44
2022-09-28T09:14:04.518Z,18.91
2022-09-28T09:16:59.949Z,18.57
2022-09-28T09:19:35.515Z,18.97
2022-09-28T09:22:16.594Z,19.70
2022-09-28T09:24:50.982Z,19.56
2022-09-28T09:27:32.784Z,19.34
2022-09-28T09:30:04.806Z,19.40
2022-09-28T09:32:50.406Z,19.80
2022-09-28T09:35:52.170Z,20.22
2022-09-28T09:38:28.520Z,19.16
2022-09-28T09:41:01.259Z,19.37
2022-09-28T09:43:31.727Z,19.88
2022-09-28T09:46:08.958Z,20.38
2022-09-28T09:48:55.039Z,20.29
2022-09-28T09:51:45.696Z,20.09
2022-09-28T09:54:16.707Z,20.69
2022-09-28T09:56:53.451Z,20.92
2022-09-28T09:59:39.740Z,20.62
2022-09-28T10:02:30.752Z,20.80
2022-09-28T10:05:01.664Z,20.94
2022-09-28T10:07:49.653Z,20.46
2022-09-28T10:10:22.956Z,21.05
2022-09-28T10:12:51.438Z,21.46
2022-09-28T10:15:28.149Z,21.55
2022-09-28T10:17:57.103Z,21.58
2022-09-28T10:20:25.575Z,21.06
2022-09-28T10:22:56.232Z,21.25
2022-09-28T10:25:22.931Z,21.64
2022-09-28T10:27:52.633Z,21.59
2022-09-28T10:30:23.365Z,21.78
2022-09-28T10:32:53.666Z,21.55
2022-09-28T10:35:24.042Z,21.83
2022-09-28T10:38:01.779Z,21.99
2022-09-28T10:40:46.000Z,22.13
2022-09-28T10:43:30.327Z,22.39
2022-09-28T10:46:23.540Z,21.77
2022-09-28T10:49:19.342Z,21.97
2022-09-28T10:51:51.827Z,22.16
2022-09-28T10:54:24.410Z,22.11
2022-09-28T10:56:52.621Z,22.36
2022-09-28T10:59:31.679Z,22.11
2022-09-28T11:02:00.869Z,22.42
2022-09-28T11:04:29.804Z,22.82
2022-09-28T11:09:31.245Z,22.69
2022-09-28T11:12:04.953Z,22.14
2022-09-28T11:14:42.740Z,22.56
2022-09-28T11:17:32.643Z,22.21
2022-09-28T11:20:01.783Z,23.01
2022-09-28T11:22:30.171Z,23.10
2022-09-28T11:25:18.158Z,23.17
2022-09-28T11:28:04.814Z,23.11
2022-09-28T11:30:51.363Z,23.16
2022-09-28T11:33:26.942Z,23.53
2022-09-28T11:36:08.844Z,22.22
2022-09-28T11:38:59.838Z,22.76
2022-09-28T11:41:32.334Z,23.10
2022-09-28T11:44:17.470Z,23.28
2022-09-28T11:47:13.230Z,23.74
2022-09-28T11:49:47.783Z,23.21
2022-09-28T11:52:25.398Z,23.91
2022-09-28T11:54:57.192Z,24.46
2022-09-28T11:57:37.139Z,23.96
2022-09-28T12:00:13.218Z,24.37
2022-09-28T12:02:46.905Z,24.33
2022-09-28T12:05:30.394Z,24.80
2022-09-28T12:07:58.986Z,24.04
2022-09-28T12:10:38.749Z,24.09
2022-09-28T12:13:14.897Z,23.75
2022-09-28T12:16:32.835Z,23.66
2022-09-28T12:19:14.288Z,23.08
2022-09-28T12:21:43.965Z,23.65
2022-09-28T12:24:20.986Z,23.50
2022-09-28T12:27:02.238Z,24.14
2022-09-28T12:29:41.061Z,23.91
2022-09-28T12:32:41.702Z,24.35
2022-09-28T12:35:27.815Z,24.60
2022-09-28T12:37:57.956Z,24.47
2022-09-28T12:40:37.553Z,24.58
2022-09-28T12:43:31.220Z,24.59
2022-09-28T12:46:16.602Z,23.61
2022-09-28T12:49:33.224Z,24.21
2022-09-28T12:52:02.042Z,24.68
2022-09-28T12:54:38.893Z,24.62
2022-09-28T12:57:11.193Z,24.68
2022-09-28T13:00:11.904Z,24.32
2022-09-28T13:02:47.659Z,24.02
2022-09-28T13:05:29.258Z,24.10
2022-09-28T13:07:55.776Z,23.76
2022-09-28T13:10:44.965Z,23.78
2022-09-28T13:13:14.307Z,23.95
2022-09-28T13:16:02.492Z,23.76
2022-09-28T13:18:29.362Z,23.45
2022-09-28T13:21:09.916Z,23.49
2022-09-28T13:23:48.088Z,23.33
2022-09-28T13:26:24.294Z,23.44
2022-09-28T13:28:54.802Z,23.67
2022-09-28T13:31:31.763Z,23.66
2022-09-28T13:34:03.090Z,23.89
2022-09-28T13:36:30.441Z,24.28
2022-09-28T13:38:59.458Z,24.14
2022-09-28T13:41:36.241Z,23.98
2022-09-28T13:44:16.842Z,23.61
2022-09-28T13:47:08.564Z,23.71
2022-09-28T13:50:05.836Z,23.66
2022-09-28T13:52:58.263Z,23.43
2022-09-28T13:55:33.674Z,23.72
2022-09-28T13:58:30.333Z,23.87
2022-09-28T14:01:41.009Z,23.92
2022-09-28T14:04:25.751Z,23.61
2022-09-28T14:06:59.388Z,23.40
2022-09-28T14:10:06.115Z,23.51
2022-09-28T14:12:35.914Z,23.69
2022-09-28T14:15:26.485Z,23.94
2022-09-28T14:18:12.953Z,23.90
2022-09-28T14:20:47.837Z,23.50
2022-09-28T14:23:43.660Z,23.44
2022-09-28T14:26:44.247Z,23.72
2022-09-28T14:29:29.185Z,23.90
2022-09-28T14:31:58.343Z,23.84
2022-09-28T14:34:36.261Z,23.85
2022-09-28T14:37:24.581Z,23.85
2022-09-28T14:40:10.028Z,23.81
2022-09-28T14:42:37.689Z,23.92
2022-09-28T14:45:06.769Z,24.12
2022-09-28T14:48:11.444Z,24.11
2022-09-28T14:50:38.169Z,23.99
2022-09-28T14:53:20.750Z,23.93
2022-09-28T14:55:57.768Z,23.94
2022-09-28T14:58:27.603Z,23.90
2022-09-28T15:01:16.553Z,23.85
2022-09-28T15:03:46.911Z,23.79
2022-09-28T15:06:18.452Z,23.69
2022-09-28T15:08:45.094Z,23.63
2022-09-28T15:11:23.772Z,23.57
2022-09-28T15:13:53.983Z,22.84
2022-09-28T15:16:35.717Z,22.82
2022-09-28T15:19:34.502Z,22.87
2022-09-28T15:22:04.115Z,23.19
2022-09-28T15:24:37.449Z,23.23
2022-09-28T15:27:16.009Z,23.29
2022-09-28T15:29:57.344Z,23.25
2022-09-28T15:32:29.687Z,23.12
2022-09-28T15:34:57.222Z,23.16
2022-09-28T15:37:32.632Z,22.77
2022-09-28T15:40:01.014Z,22.97
2022-09-28T15:42:27.790Z,22.96
2022-09-28T15:45:16.188Z,22.91
2022-09-28T15:47:43.660Z,22.97
2022-09-28T15:50:24.169Z,22.83
2022-09-28T15:52:58.120Z,22.90
2022-09-28T15:55:33.491Z,22.45
2022-09-28T15:58:19.822Z,22.83
2022-09-28T16:00:48.782Z,22.95
2022-09-28T16:03:33.999Z,22.72
2022-09-28T16:06:00.636Z,22.76
2022-09-28T16:08:48.986Z,22.96
2022-09-28T16:11:18.303Z,22.77
2022-09-28T16:13:55.173Z,22.65
2022-09-28T16:16:29.665Z,22.61
2022-09-28T16:19:00.592Z,22.81
2022-09-28T16:21:45.574Z,22.57
2022-09-28T16:24:33.322Z,22.55
2022-09-28T16:27:02.789Z,22.42
2022-09-28T16:29:45.037Z,22.39
2022-09-28T16:32:24.804Z,22.42
2022-09-28T16:35:10.906Z,22.23
2022-09-28T16:37:42.695Z,22.59
2022-09-28T16:40:13.348Z,22.35
2022-09-28T16:42:48.160Z,22.44
2022-09-28T16:45:21.700Z,22.16
2022-09-28T16:47:51.968Z,22.08
2022-09-28T16:50:21.384Z,22.35
2022-09-28T16:53:14.855Z,22.42
2022-09-28T16:55:41.558Z,22.42
2022-09-28T16:58:08.547Z,22.40
2022-09-28T17:00:35.481Z,22.35
2022-09-28T17:03:02.300Z,22.40
2022-09-28T17:05:29.534Z,22.35
2022-09-28T17:08:01.733Z,22.39
2022-09-28T17:11:09.788Z,22.25
2022-09-28T17:13:33.990Z,22.33
2022-09-28T17:16:03.203Z,21.75
2022-09-28T17:18:31.967Z,22.06
2022-09-28T17:21:03.177Z,22.23
2022-09-28T17:23:30.478Z,22.14
2022-09-28T17:25:59.182Z,22.25
2022-09-28T17:28:32.471Z,22.19
2022-09-28T17:30:59.216Z,21.93
2022-09-28T17:33:26.098Z,22.12
2022-09-28T17:35:57.516Z,22.04
2022-09-28T17:38:24.194Z,22.29
2022-09-28T17:40:50.901Z,22.32
2022-09-28T17:43:17.573Z,22.42
2022-09-28T17:45:46.682Z,22.22
2022-09-28T17:48:18.649Z,21.92
2022-09-28T17:50:47.462Z,22.25
2022-09-28T17:53:17.391Z,22.48
2022-09-28T17:55:44.095Z,22.32
2022-09-28T17:58:21.058Z,22.09
2022-09-28T18:00:50.241Z,22.11
2022-09-28T18:03:22.378Z,21.97
2022-09-28T18:05:57.302Z,22.22
2022-09-28T18:08:24.040Z,22.15
2022-09-28T18:10:50.658Z,21.91
2022-09-28T18:13:17.299Z,21.99
2022-09-28T18:15:44.013Z,22.12
2022-09-28T18:18:12.637Z,22.39
2022-09-28T18:20:39.442Z,22.50
2022-09-28T18:23:06.004Z,22.34
2022-09-28T18:25:32.628Z,21.93
2022-09-28T18:28:00.179Z,21.88
2022-09-28T18:30:27.840Z,21.71
2022-09-28T18:32:55.050Z,21.40
2022-09-28T18:35:23.369Z,21.86
2022-09-28T18:37:50.741Z,21.97
2022-09-28T18:40:17.915Z,21.93
2022-09-28T18:42:44.557Z,22.06
2022-09-28T18:45:17.847Z,21.99
2022-09-28T18:47:45.620Z,21.63
2022-09-28T18:50:12.895Z,21.79
2022-09-28T18:52:40.181Z,21.78
2022-09-28T18:55:07.919Z,21.31
2022-09-28T18:57:35.073Z,20.96
2022-09-28T19:00:05.096Z,21.56
2022-09-28T19:02:32.183Z,22.03
2022-09-28T19:04:58.942Z,21.79
2022-09-28T19:07:26.018Z,22.14
2022-09-28T19:09:53.374Z,22.18
2022-09-28T19:12:20.683Z,22.19
2022-09-28T19:14:47.289Z,21.82
2022-09-28T19:17:14.076Z,21.75
2022-09-28T19:19:42.728Z,21.94
2022-09-28T19:22:09.418Z,21.57
2022-09-28T19:24:36.743Z,21.21
2022-09-28T19:27:03.389Z,21.37
2022-09-28T19:29:30.026Z,21.48
2022-09-28T19:31:57.121Z,21.40
2022-09-28T19:34:26.986Z,21.87
2022-09-28T19:36:53.621Z,21.84
2022-09-28T19:39:20.271Z,21.88
2022-09-28T19:41:51.421Z,21.59
2022-09-28T19:44:29.744Z,20.90
2022-09-28T19:47:07.040Z,21.29
2022-09-28T19:49:36.964Z,21.33
2022-09-28T19:52:13.161Z,21.30
2022-09-28T19:54:41.186Z,21.50
2022-09-28T19:57:09.002Z,21.71
2022-09-28T19:59:37.287Z,21.42
2022-09-28T20:02:07.907Z,21.41
2022-09-28T20:04:34.692Z,21.16
2022-09-28T20:07:01.914Z,20.81
2022-09-28T20:09:28.851Z,21.20
2022-09-28T20:11:55.642Z,21.11
2022-09-28T20:14:24.525Z,21.12
2022-09-28T20:16:53.449Z,21.08
2022-09-28T20:19:21.813Z,20.84
2022-09-28T20:21:48.576Z,20.82
2022-09-28T20:24:17.248Z,20.95
2022-09-28T20:26:54.178Z,20.88
2022-09-28T20:29:20.867Z,20.59
2022-09-28T20:31:47.652Z,20.65
2022-09-28T20:34:14.379Z,20.50
2022-09-28T20:36:42.459Z,20.75
2022-09-28T20:39:10.475Z,20.92
2022-09-28T20:41:37.044Z,21.05
2022-09-28T20:44:06.383Z,21.04
2022-09-28T20:46:35.480Z,20.82
2022-09-28T20:49:03.129Z,20.85
2022-09-28T20:51:29.730Z,20.86
2022-09-28T20:53:57.757Z,20.64
2022-09-28T20:56:38.721Z,20.54
2022-09-28T20:59:08.051Z,19.85
2022-09-28T21:01:34.936Z,20.16
2022-09-28T21:04:03.620Z,20.27
2022-09-28T21:06:35.583Z,19.91
2022-09-28T21:09:03.558Z,20.07
2022-09-28T21:11:30.763Z,20.18
2022-09-28T21:13:59.903Z,20.16
2022-09-28T21:16:29.620Z,19.60
2022-09-28T21:18:56.305Z,20.04
2022-09-28T21:21:24.183Z,20.01
2022-09-28T21:23:55.219Z,19.89
2022-09-28T21:26:27.022Z,19.90
2022-09-28T21:29:07.862Z,19.93
2022-09-28T21:31:43.167Z,19.76
2022-09-28T21:34:13.447Z,19.70
2022-09-28T21:36:43.547Z,19.56
2022-09-28T21:39:10.779Z,20.05
2022-09-28T21:41:37.812Z,19.31
2022-09-28T21:44:05.099Z,19.45
2022-09-28T21:46:35.559Z,19.76
2022-09-28T21:49:07.529Z,19.91
2022-09-28T21:51:35.320Z,19.52
2022-09-28T21:54:01.889Z,19.26
2022-09-28T21:56:28.767Z,19.49
2022-09-28T21:58:55.369Z,19.61
2022-09-28T22:01:25.498Z,19.67
2022-09-28T22:03:54.602Z,19.66
2022-09-28T22:06:22.765Z,19.66
2022-09-28T22:08:50.366Z,19.66
2022-09-28T22:11:24.909Z,19.74
2022-09-28T22:13:53.941Z,19.67
2022-09-28T22:16:22.766Z,19.81
2022-09-28T22:18:49.910Z,19.69
2022-09-28T22:21:18.056Z,19.70
2022-09-28T22:23:45.112Z,19.66
2022-09-28T22:26:23.895Z,19.68
2022-09-28T22:29:01.444Z,19.63
2022-09-28T22:31:34.521Z,19.63
2022-09-28T22:34:01.715Z,19.67
2022-09-28T22:36:29.148Z,19.68
2022-09-28T22:38:56.915Z,19.73
2022-09-28T22:41:24.935Z,19.74
2022-09-28T22:43:53.602Z,19.83
2022-09-28T22:46:25.836Z,19.75
2022-09-28T22:48:57.306Z,19.82
2022-09-28T22:51:25.623Z,19.70
2022-09-28T22:53:52.499Z,19.63
2022-09-28T22:56:19.444Z,19.71
2022-09-28T22:58:46.518Z,19.47
2022-09-28T23:01:18.524Z,19.60
2022-09-28T23:03:45.598Z,19.51
2022-09-28T23:06:16.075Z,19.39
2022-09-28T23:08:44.452Z,19.51
2022-09-28T23:11:11.511Z,19.65
2022-09-28T23:13:38.449Z,19.38
2022-09-28T23:16:08.252Z,19.23
2022-09-28T23:18:36.801Z,19.06
2022-09-28T23:21:06.695Z,19.03
2022-09-28T23:23:34.073Z,18.97
2022-09-28T23:26:09.361Z,19.14
2022-09-28T23:28:35.962Z,19.09
2022-09-28T23:31:10.186Z,19.00
2022-09-28T23:33:36.863Z,19.34
2022-09-28T23:36:03.637Z,19.42
2022-09-28T23:38:30.284Z,19.06
2022-09-28T23:40:57.003Z,19.12
2022-09-28T23:43:23.740Z,19.23
2022-09-28T23:45:50.365Z,19.25
2022-09-28T23:48:16.960Z,19.28
2022-09-28T23:50:44.593Z,19.08
2022-09-28T23:53:13.711Z,19.15
2022-09-28T23:55:43.385Z,19.24
2022-09-28T23:58:11.103Z,19.28
